sensor_id;sensor_type;location;lat;lon;timestamp;P1;durP1;ratioP1;P2;durP2;ratioP2
5965;SDS011;3009;43.224;27.976;2023-04-01T00:01:18;11.43;;;4.27;;
5965;SDS011;3009;43.224;27.976;2023-04-01T00:03:47;4.77;;;4.10;;
5965;SDS011;3009;43.224;27.976;2023-04-01T00:06:17;7.20;;;5.47;;
5965;SDS011;3009;43.224;27.976;2023-04-01T00:08:46;14.03;;;4.50;;
5965;SDS011;3009;43.224;27.976;2023-04-01T00:11:15;13.70;;;4.27;;
5965;SDS011;3009;43.224;27.976;2023-04-01T00:13:46;6.10;;;4.33;;
5965;SDS011;3009;43.224;27.976;2023-04-01T00:16:15;8.43;;;4.50;;
5965;SDS011;3009;43.224;27.976;2023-04-01T00:18:48;6.40;;;4.77;;
5965;SDS011;3009;43.224;27.976;2023-04-01T00:21:17;7.13;;;4.27;;
5965;SDS011;3009;43.224;27.976;2023-04-01T00:23:47;5.83;;;4.20;;
5965;SDS011;3009;43.224;27.976;2023-04-01T00:26:15;5.97;;;4.13;;
5965;SDS011;3009;43.224;27.976;2023-04-01T00:28:47;8.43;;;4.70;;
5965;SDS011;3009;43.224;27.976;2023-04-01T00:31:15;5.80;;;4.17;;
5965;SDS011;3009;43.224;27.976;2023-04-01T00:33:46;6.20;;;4.30;;
5965;SDS011;3009;43.224;27.976;2023-04-01T00:36:15;7.47;;;4.40;;
5965;SDS011;3009;43.224;27.976;2023-04-01T00:38:45;4.70;;;3.50;;
5965;SDS011;3009;43.224;27.976;2023-04-01T00:41:14;8.83;;;4.33;;
5965;SDS011;3009;43.224;27.976;2023-04-01T00:43:44;4.63;;;3.60;;
5965;SDS011;3009;43.224;27.976;2023-04-01T00:46:14;3.80;;;3.50;;
5965;SDS011;3009;43.224;27.976;2023-04-01T00:48:43;4.67;;;4.27;;
5965;SDS011;3009;43.224;27.976;2023-04-01T00:51:17;3.97;;;3.70;;
5965;SDS011;3009;43.224;27.976;2023-04-01T00:53:49;4.10;;;3.60;;
5965;SDS011;3009;43.224;27.976;2023-04-01T00:56:21;12.30;;;5.47;;
5965;SDS011;3009;43.224;27.976;2023-04-01T00:58:54;23.33;;;16.00;;
5965;SDS011;3009;43.224;27.976;2023-04-01T01:01:26;27.40;;;18.70;;
5965;SDS011;3009;43.224;27.976;2023-04-01T01:03:59;22.20;;;17.73;;
5965;SDS011;3009;43.224;27.976;2023-04-01T01:06:32;31.80;;;20.30;;
5965;SDS011;3009;43.224;27.976;2023-04-01T01:09:21;38.83;;;17.17;;
5965;SDS011;3009;43.224;27.976;2023-04-01T01:11:57;38.10;;;15.97;;
5965;SDS011;3009;43.224;27.976;2023-04-01T01:14:36;22.73;;;12.13;;
5965;SDS011;3009;43.224;27.976;2023-04-01T01:17:14;23.10;;;13.97;;
5965;SDS011;3009;43.224;27.976;2023-04-01T01:20:01;19.20;;;12.37;;
5965;SDS011;3009;43.224;27.976;2023-04-01T01:22:54;20.80;;;12.60;;
5965;SDS011;3009;43.224;27.976;2023-04-01T01:25:38;18.27;;;12.87;;
5965;SDS011;3009;43.224;27.976;2023-04-01T01:28:19;16.33;;;12.23;;
5965;SDS011;3009;43.224;27.976;2023-04-01T01:31:00;23.97;;;12.83;;
5965;SDS011;3009;43.224;27.976;2023-04-01T01:33:50;14.23;;;11.47;;
5965;SDS011;3009;43.224;27.976;2023-04-01T01:36:32;18.10;;;11.83;;
5965;SDS011;3009;43.224;27.976;2023-04-01T01:39:02;20.17;;;12.47;;
5965;SDS011;3009;43.224;27.976;2023-04-01T01:41:32;14.87;;;12.03;;
5965;SDS011;3009;43.224;27.976;2023-04-01T01:44:02;17.10;;;12.33;;
5965;SDS011;3009;43.224;27.976;2023-04-01T01:46:34;18.60;;;12.77;;
5965;SDS011;3009;43.224;27.976;2023-04-01T01:49:06;18.53;;;12.07;;
5965;SDS011;3009;43.224;27.976;2023-04-01T01:51:38;20.27;;;12.87;;
5965;SDS011;3009;43.224;27.976;2023-04-01T01:54:06;22.53;;;12.77;;
5965;SDS011;3009;43.224;27.976;2023-04-01T01:56:39;17.53;;;11.57;;
5965;SDS011;3009;43.224;27.976;2023-04-01T01:59:10;16.13;;;11.20;;
5965;SDS011;3009;43.224;27.976;2023-04-01T02:01:42;16.13;;;10.03;;
5965;SDS011;3009;43.224;27.976;2023-04-01T02:04:13;12.23;;;9.67;;
5965;SDS011;3009;43.224;27.976;2023-04-01T02:06:46;16.43;;;10.70;;
5965;SDS011;3009;43.224;27.976;2023-04-01T02:09:18;15.80;;;9.80;;
5965;SDS011;3009;43.224;27.976;2023-04-01T02:11:48;10.47;;;8.33;;
5965;SDS011;3009;43.224;27.976;2023-04-01T02:14:20;13.00;;;8.50;;
5965;SDS011;3009;43.224;27.976;2023-04-01T02:16:53;9.27;;;6.90;;
5965;SDS011;3009;43.224;27.976;2023-04-01T02:19:26;9.27;;;6.40;;
5965;SDS011;3009;43.224;27.976;2023-04-01T02:22:00;12.07;;;5.53;;
5965;SDS011;3009;43.224;27.976;2023-04-01T02:24:31;11.93;;;5.70;;
5965;SDS011;3009;43.224;27.976;2023-04-01T02:27:03;8.17;;;5.60;;
5965;SDS011;3009;43.224;27.976;2023-04-01T02:29:31;7.40;;;5.30;;
5965;SDS011;3009;43.224;27.976;2023-04-01T02:32:00;5.00;;;4.50;;
5965;SDS011;3009;43.224;27.976;2023-04-01T02:34:30;5.53;;;4.97;;
5965;SDS011;3009;43.224;27.976;2023-04-01T02:37:00;12.60;;;8.40;;
5965;SDS011;3009;43.224;27.976;2023-04-01T02:39:29;14.30;;;10.10;;
5965;SDS011;3009;43.224;27.976;2023-04-01T02:41:57;22.00;;;12.60;;
5965;SDS011;3009;43.224;27.976;2023-04-01T02:44:26;18.23;;;9.00;;
5965;SDS011;3009;43.224;27.976;2023-04-01T02:46:54;9.13;;;6.93;;
5965;SDS011;3009;43.224;27.976;2023-04-01T02:49:23;12.00;;;5.90;;
5965;SDS011;3009;43.224;27.976;2023-04-01T02:51:51;7.20;;;5.07;;
5965;SDS011;3009;43.224;27.976;2023-04-01T02:54:21;6.90;;;5.27;;
5965;SDS011;3009;43.224;27.976;2023-04-01T02:56:49;5.97;;;4.47;;
5965;SDS011;3009;43.224;27.976;2023-04-01T02:59:18;10.43;;;5.07;;
5965;SDS011;3009;43.224;27.976;2023-04-01T03:01:46;7.93;;;4.20;;
5965;SDS011;3009;43.224;27.976;2023-04-01T03:04:15;8.50;;;4.20;;
5965;SDS011;3009;43.224;27.976;2023-04-01T03:06:43;5.40;;;4.40;;
5965;SDS011;3009;43.224;27.976;2023-04-01T03:09:11;5.37;;;4.77;;
5965;SDS011;3009;43.224;27.976;2023-04-01T03:11:42;5.57;;;5.07;;
5965;SDS011;3009;43.224;27.976;2023-04-01T03:14:10;8.83;;;4.80;;
5965;SDS011;3009;43.224;27.976;2023-04-01T03:16:38;8.43;;;5.30;;
5965;SDS011;3009;43.224;27.976;2023-04-01T03:19:07;6.50;;;4.23;;
5965;SDS011;3009;43.224;27.976;2023-04-01T03:21:35;5.33;;;4.47;;
5965;SDS011;3009;43.224;27.976;2023-04-01T03:24:04;7.67;;;5.43;;
5965;SDS011;3009;43.224;27.976;2023-04-01T03:26:33;8.33;;;6.03;;
5965;SDS011;3009;43.224;27.976;2023-04-01T03:29:03;8.77;;;5.23;;
5965;SDS011;3009;43.224;27.976;2023-04-01T03:31:32;13.53;;;7.50;;
5965;SDS011;3009;43.224;27.976;2023-04-01T03:34:01;9.47;;;5.50;;
5965;SDS011;3009;43.224;27.976;2023-04-01T03:36:29;7.53;;;5.93;;
5965;SDS011;3009;43.224;27.976;2023-04-01T03:38:58;5.13;;;4.63;;
5965;SDS011;3009;43.224;27.976;2023-04-01T03:41:26;9.33;;;5.10;;
5965;SDS011;3009;43.224;27.976;2023-04-01T03:43:54;7.80;;;5.37;;
5965;SDS011;3009;43.224;27.976;2023-04-01T03:46:24;9.77;;;7.43;;
5965;SDS011;3009;43.224;27.976;2023-04-01T03:48:53;14.47;;;8.40;;
5965;SDS011;3009;43.224;27.976;2023-04-01T03:51:21;11.43;;;7.40;;
5965;SDS011;3009;43.224;27.976;2023-04-01T03:53:49;8.60;;;6.50;;
5965;SDS011;3009;43.224;27.976;2023-04-01T03:56:18;11.20;;;7.07;;
5965;SDS011;3009;43.224;27.976;2023-04-01T03:58:46;11.20;;;7.50;;
5965;SDS011;3009;43.224;27.976;2023-04-01T04:01:16;12.30;;;7.60;;
5965;SDS011;3009;43.224;27.976;2023-04-01T04:03:48;11.10;;;6.73;;
5965;SDS011;3009;43.224;27.976;2023-04-01T04:06:19;8.90;;;6.13;;
5965;SDS011;3009;43.224;27.976;2023-04-01T04:08:47;9.03;;;6.63;;
5965;SDS011;3009;43.224;27.976;2023-04-01T04:11:16;13.03;;;6.53;;
5965;SDS011;3009;43.224;27.976;2023-04-01T04:13:44;12.60;;;7.30;;
5965;SDS011;3009;43.224;27.976;2023-04-01T04:16:14;9.80;;;7.83;;
5965;SDS011;3009;43.224;27.976;2023-04-01T04:18:44;16.27;;;7.73;;
5965;SDS011;3009;43.224;27.976;2023-04-01T04:21:14;12.00;;;8.00;;
5965;SDS011;3009;43.224;27.976;2023-04-01T04:23:43;18.07;;;11.10;;
5965;SDS011;3009;43.224;27.976;2023-04-01T04:26:12;16.00;;;11.20;;
5965;SDS011;3009;43.224;27.976;2023-04-01T04:28:41;13.50;;;10.20;;
5965;SDS011;3009;43.224;27.976;2023-04-01T04:31:10;26.57;;;10.67;;
5965;SDS011;3009;43.224;27.976;2023-04-01T04:33:39;11.20;;;8.57;;
5965;SDS011;3009;43.224;27.976;2023-04-01T04:36:07;9.43;;;6.10;;
5965;SDS011;3009;43.224;27.976;2023-04-01T04:38:37;10.50;;;6.87;;
5965;SDS011;3009;43.224;27.976;2023-04-01T04:41:08;18.63;;;6.80;;
5965;SDS011;3009;43.224;27.976;2023-04-01T04:43:38;12.93;;;6.67;;
5965;SDS011;3009;43.224;27.976;2023-04-01T04:46:06;6.60;;;5.37;;
5965;SDS011;3009;43.224;27.976;2023-04-01T04:48:35;6.87;;;5.40;;
5965;SDS011;3009;43.224;27.976;2023-04-01T04:51:04;9.13;;;5.83;;
5965;SDS011;3009;43.224;27.976;2023-04-01T04:53:32;5.40;;;4.90;;
5965;SDS011;3009;43.224;27.976;2023-04-01T04:56:02;6.13;;;5.50;;
5965;SDS011;3009;43.224;27.976;2023-04-01T04:58:31;8.83;;;5.47;;
5965;SDS011;3009;43.224;27.976;2023-04-01T05:01:04;7.17;;;4.43;;
5965;SDS011;3009;43.224;27.976;2023-04-01T05:03:33;15.10;;;10.60;;
5965;SDS011;3009;43.224;27.976;2023-04-01T05:06:02;28.27;;;9.70;;
5965;SDS011;3009;43.224;27.976;2023-04-01T05:08:31;20.13;;;10.70;;
5965;SDS011;3009;43.224;27.976;2023-04-01T05:11:00;22.87;;;12.73;;
5965;SDS011;3009;43.224;27.976;2023-04-01T05:13:30;15.23;;;9.90;;
5965;SDS011;3009;43.224;27.976;2023-04-01T05:15:59;17.30;;;9.90;;
5965;SDS011;3009;43.224;27.976;2023-04-01T05:18:27;16.23;;;12.00;;
5965;SDS011;3009;43.224;27.976;2023-04-01T05:20:56;18.10;;;11.67;;
5965;SDS011;3009;43.224;27.976;2023-04-01T05:23:24;19.10;;;11.37;;
5965;SDS011;3009;43.224;27.976;2023-04-01T05:25:53;14.40;;;8.90;;
5965;SDS011;3009;43.224;27.976;2023-04-01T05:28:24;14.23;;;9.30;;
5965;SDS011;3009;43.224;27.976;2023-04-01T05:30:53;15.37;;;10.90;;
5965;SDS011;3009;43.224;27.976;2023-04-01T05:33:21;17.07;;;8.90;;
5965;SDS011;3009;43.224;27.976;2023-04-01T05:35:50;13.97;;;7.90;;
5965;SDS011;3009;43.224;27.976;2023-04-01T05:38:18;12.53;;;8.40;;
5965;SDS011;3009;43.224;27.976;2023-04-01T05:40:47;16.37;;;7.17;;
5965;SDS011;3009;43.224;27.976;2023-04-01T05:43:15;15.10;;;6.33;;
5965;SDS011;3009;43.224;27.976;2023-04-01T05:45:45;13.43;;;6.30;;
5965;SDS011;3009;43.224;27.976;2023-04-01T05:48:13;10.37;;;5.23;;
5965;SDS011;3009;43.224;27.976;2023-04-01T05:50:42;8.30;;;5.43;;
5965;SDS011;3009;43.224;27.976;2023-04-01T05:53:10;8.17;;;5.83;;
5965;SDS011;3009;43.224;27.976;2023-04-01T05:55:39;7.57;;;5.70;;
5965;SDS011;3009;43.224;27.976;2023-04-01T05:58:07;13.47;;;7.40;;
5965;SDS011;3009;43.224;27.976;2023-04-01T06:00:36;10.30;;;7.00;;
5965;SDS011;3009;43.224;27.976;2023-04-01T06:03:06;11.40;;;5.63;;
5965;SDS011;3009;43.224;27.976;2023-04-01T06:05:37;8.47;;;5.10;;
5965;SDS011;3009;43.224;27.976;2023-04-01T06:08:10;12.13;;;6.00;;
5965;SDS011;3009;43.224;27.976;2023-04-01T06:10:49;10.93;;;5.93;;
5965;SDS011;3009;43.224;27.976;2023-04-01T06:13:30;12.27;;;5.70;;
5965;SDS011;3009;43.224;27.976;2023-04-01T06:16:10;8.23;;;5.20;;
5965;SDS011;3009;43.224;27.976;2023-04-01T06:18:54;9.87;;;6.10;;
5965;SDS011;3009;43.224;27.976;2023-04-01T06:21:35;12.93;;;6.67;;
5965;SDS011;3009;43.224;27.976;2023-04-01T06:24:16;7.23;;;6.53;;
5965;SDS011;3009;43.224;27.976;2023-04-01T06:27:00;8.20;;;6.40;;
5965;SDS011;3009;43.224;27.976;2023-04-01T06:32:36;6.90;;;5.70;;
5965;SDS011;3009;43.224;27.976;2023-04-01T06:35:27;15.43;;;6.13;;
5965;SDS011;3009;43.224;27.976;2023-04-01T06:41:21;9.83;;;6.30;;
5965;SDS011;3009;43.224;27.976;2023-04-01T06:44:04;7.67;;;6.07;;
5965;SDS011;3009;43.224;27.976;2023-04-01T06:46:43;7.07;;;5.70;;
5965;SDS011;3009;43.224;27.976;2023-04-01T06:52:11;10.97;;;7.47;;
5965;SDS011;3009;43.224;27.976;2023-04-01T06:54:47;27.47;;;11.03;;
5965;SDS011;3009;43.224;27.976;2023-04-01T06:57:20;15.13;;;7.53;;
5965;SDS011;3009;43.224;27.976;2023-04-01T06:59:56;8.33;;;5.60;;
5965;SDS011;3009;43.224;27.976;2023-04-01T07:02:29;10.20;;;5.30;;
5965;SDS011;3009;43.224;27.976;2023-04-01T07:05:03;6.20;;;4.77;;
5965;SDS011;3009;43.224;27.976;2023-04-01T07:07:35;4.43;;;4.03;;
5965;SDS011;3009;43.224;27.976;2023-04-01T07:10:10;8.77;;;4.90;;
5965;SDS011;3009;43.224;27.976;2023-04-01T07:12:46;15.93;;;4.80;;
5965;SDS011;3009;43.224;27.976;2023-04-01T07:15:20;8.63;;;6.33;;
5965;SDS011;3009;43.224;27.976;2023-04-01T07:17:53;9.60;;;5.73;;
5965;SDS011;3009;43.224;27.976;2023-04-01T07:20:27;82.20;;;34.87;;
5965;SDS011;3009;43.224;27.976;2023-04-01T07:23:00;17.43;;;9.90;;
5965;SDS011;3009;43.224;27.976;2023-04-01T07:25:31;10.70;;;5.80;;
5965;SDS011;3009;43.224;27.976;2023-04-01T07:28:04;9.73;;;5.90;;
5965;SDS011;3009;43.224;27.976;2023-04-01T07:30:39;34.87;;;5.77;;
5965;SDS011;3009;43.224;27.976;2023-04-01T07:33:19;14.10;;;5.30;;
5965;SDS011;3009;43.224;27.976;2023-04-01T07:35:54;9.23;;;5.27;;
5965;SDS011;3009;43.224;27.976;2023-04-01T07:38:34;10.90;;;7.27;;
5965;SDS011;3009;43.224;27.976;2023-04-01T07:41:16;11.33;;;5.67;;
5965;SDS011;3009;43.224;27.976;2023-04-01T07:43:54;9.73;;;5.57;;
5965;SDS011;3009;43.224;27.976;2023-04-01T07:46:34;7.67;;;5.37;;
5965;SDS011;3009;43.224;27.976;2023-04-01T07:49:15;8.03;;;5.80;;
5965;SDS011;3009;43.224;27.976;2023-04-01T07:51:48;9.17;;;5.00;;
5965;SDS011;3009;43.224;27.976;2023-04-01T07:54:28;12.93;;;5.33;;
5965;SDS011;3009;43.224;27.976;2023-04-01T07:57:07;7.83;;;5.13;;
5965;SDS011;3009;43.224;27.976;2023-04-01T07:59:44;13.53;;;4.77;;
5965;SDS011;3009;43.224;27.976;2023-04-01T08:02:22;11.43;;;4.50;;
5965;SDS011;3009;43.224;27.976;2023-04-01T08:05:01;8.30;;;4.97;;
5965;SDS011;3009;43.224;27.976;2023-04-01T08:07:40;8.90;;;5.03;;
5965;SDS011;3009;43.224;27.976;2023-04-01T08:10:17;11.60;;;5.63;;
5965;SDS011;3009;43.224;27.976;2023-04-01T08:12:53;14.00;;;4.83;;
5965;SDS011;3009;43.224;27.976;2023-04-01T08:15:32;9.10;;;5.00;;
5965;SDS011;3009;43.224;27.976;2023-04-01T08:18:09;9.17;;;4.67;;
5965;SDS011;3009;43.224;27.976;2023-04-01T08:20:48;19.00;;;4.90;;
5965;SDS011;3009;43.224;27.976;2023-04-01T08:23:22;15.90;;;4.40;;
5965;SDS011;3009;43.224;27.976;2023-04-01T08:25:58;10.63;;;4.60;;
5965;SDS011;3009;43.224;27.976;2023-04-01T08:28:33;7.13;;;3.90;;
5965;SDS011;3009;43.224;27.976;2023-04-01T08:31:09;4.73;;;3.87;;
5965;SDS011;3009;43.224;27.976;2023-04-01T08:33:41;14.60;;;5.40;;
5965;SDS011;3009;43.224;27.976;2023-04-01T08:36:12;9.73;;;4.67;;
5965;SDS011;3009;43.224;27.976;2023-04-01T08:38:44;14.40;;;4.70;;
5965;SDS011;3009;43.224;27.976;2023-04-01T08:41:25;12.03;;;5.07;;
5965;SDS011;3009;43.224;27.976;2023-04-01T08:44:17;7.93;;;5.20;;
5965;SDS011;3009;43.224;27.976;2023-04-01T08:47:17;10.07;;;4.20;;
5965;SDS011;3009;43.224;27.976;2023-04-01T08:50:08;8.33;;;4.70;;
5965;SDS011;3009;43.224;27.976;2023-04-01T08:53:06;14.20;;;5.03;;
5965;SDS011;3009;43.224;27.976;2023-04-01T08:55:56;8.63;;;4.90;;
5965;SDS011;3009;43.224;27.976;2023-04-01T09:01:39;11.70;;;5.60;;
5965;SDS011;3009;43.224;27.976;2023-04-01T09:04:31;10.77;;;5.33;;
5965;SDS011;3009;43.224;27.976;2023-04-01T09:07:13;8.80;;;5.00;;
5965;SDS011;3009;43.224;27.976;2023-04-01T09:10:17;16.20;;;4.93;;
5965;SDS011;3009;43.224;27.976;2023-04-01T09:13:05;9.93;;;5.40;;
5965;SDS011;3009;43.224;27.976;2023-04-01T09:15:51;9.80;;;4.97;;
5965;SDS011;3009;43.224;27.976;2023-04-01T09:18:45;7.20;;;4.47;;
5965;SDS011;3009;43.224;27.976;2023-04-01T09:24:35;7.80;;;4.73;;
5965;SDS011;3009;43.224;27.976;2023-04-01T09:27:15;11.27;;;5.13;;
5965;SDS011;3009;43.224;27.976;2023-04-01T09:36:18;13.20;;;5.33;;
5965;SDS011;3009;43.224;27.976;2023-04-01T09:39:06;8.07;;;5.17;;
5965;SDS011;3009;43.224;27.976;2023-04-01T09:42:14;9.23;;;5.40;;
5965;SDS011;3009;43.224;27.976;2023-04-01T09:44:56;8.30;;;5.57;;
5965;SDS011;3009;43.224;27.976;2023-04-01T09:47:37;19.83;;;5.70;;
5965;SDS011;3009;43.224;27.976;2023-04-01T09:50:23;7.53;;;5.07;;
5965;SDS011;3009;43.224;27.976;2023-04-01T09:53:07;14.63;;;5.97;;
5965;SDS011;3009;43.224;27.976;2023-04-01T09:55:54;13.17;;;6.00;;
5965;SDS011;3009;43.224;27.976;2023-04-01T09:58:46;7.10;;;5.37;;
5965;SDS011;3009;43.224;27.976;2023-04-01T10:01:39;12.30;;;5.33;;
5965;SDS011;3009;43.224;27.976;2023-04-01T10:20:11;13.37;;;6.10;;
5965;SDS011;3009;43.224;27.976;2023-04-01T10:29:02;16.37;;;6.97;;
5965;SDS011;3009;43.224;27.976;2023-04-01T10:38:20;17.20;;;6.00;;
5965;SDS011;3009;43.224;27.976;2023-04-01T10:41:30;7.10;;;5.00;;
5965;SDS011;3009;43.224;27.976;2023-04-01T10:51:01;12.97;;;6.10;;
5965;SDS011;3009;43.224;27.976;2023-04-01T10:56:43;15.43;;;6.40;;
5965;SDS011;3009;43.224;27.976;2023-04-01T11:08:42;13.20;;;5.83;;
5965;SDS011;3009;43.224;27.976;2023-04-01T11:12:07;21.73;;;9.33;;
5965;SDS011;3009;43.224;27.976;2023-04-01T11:21:05;12.13;;;5.50;;
5965;SDS011;3009;43.224;27.976;2023-04-01T11:24:09;9.23;;;5.73;;
5965;SDS011;3009;43.224;27.976;2023-04-01T11:27:07;18.13;;;5.60;;
5965;SDS011;3009;43.224;27.976;2023-04-01T11:30:00;9.07;;;5.10;;
5965;SDS011;3009;43.224;27.976;2023-04-01T11:32:39;9.90;;;4.93;;
5965;SDS011;3009;43.224;27.976;2023-04-01T11:35:20;13.57;;;5.90;;
5965;SDS011;3009;43.224;27.976;2023-04-01T11:38:00;8.67;;;5.50;;
5965;SDS011;3009;43.224;27.976;2023-04-01T11:40:35;11.23;;;5.53;;
5965;SDS011;3009;43.224;27.976;2023-04-01T11:43:11;9.33;;;5.50;;
5965;SDS011;3009;43.224;27.976;2023-04-01T11:46:00;12.70;;;5.03;;
5965;SDS011;3009;43.224;27.976;2023-04-01T11:48:39;12.33;;;5.13;;
5965;SDS011;3009;43.224;27.976;2023-04-01T11:51:21;12.03;;;5.60;;
5965;SDS011;3009;43.224;27.976;2023-04-01T11:54:14;10.60;;;5.57;;
5965;SDS011;3009;43.224;27.976;2023-04-01T11:56:57;13.57;;;4.97;;
5965;SDS011;3009;43.224;27.976;2023-04-01T11:59:48;16.13;;;5.40;;
5965;SDS011;3009;43.224;27.976;2023-04-01T12:02:32;13.93;;;5.30;;
5965;SDS011;3009;43.224;27.976;2023-04-01T12:05:21;22.53;;;6.10;;
5965;SDS011;3009;43.224;27.976;2023-04-01T12:08:01;13.43;;;6.33;;
5965;SDS011;3009;43.224;27.976;2023-04-01T12:10:39;15.03;;;6.23;;
5965;SDS011;3009;43.224;27.976;2023-04-01T12:13:16;10.03;;;5.83;;
5965;SDS011;3009;43.224;27.976;2023-04-01T12:16:02;17.93;;;5.80;;
5965;SDS011;3009;43.224;27.976;2023-04-01T12:18:41;11.60;;;6.00;;
5965;SDS011;3009;43.224;27.976;2023-04-01T12:21:14;15.83;;;7.00;;
5965;SDS011;3009;43.224;27.976;2023-04-01T12:24:20;12.27;;;7.90;;
5965;SDS011;3009;43.224;27.976;2023-04-01T12:27:11;15.93;;;6.97;;
5965;SDS011;3009;43.224;27.976;2023-04-01T12:30:04;10.40;;;6.13;;
5965;SDS011;3009;43.224;27.976;2023-04-01T12:32:44;11.83;;;6.67;;
5965;SDS011;3009;43.224;27.976;2023-04-01T12:35:21;12.53;;;6.53;;
5965;SDS011;3009;43.224;27.976;2023-04-01T12:38:02;10.97;;;5.93;;
5965;SDS011;3009;43.224;27.976;2023-04-01T12:40:51;10.33;;;5.93;;
5965;SDS011;3009;43.224;27.976;2023-04-01T12:46:44;10.17;;;5.63;;
5965;SDS011;3009;43.224;27.976;2023-04-01T12:49:37;12.90;;;6.63;;
5965;SDS011;3009;43.224;27.976;2023-04-01T12:52:37;16.17;;;6.90;;
5965;SDS011;3009;43.224;27.976;2023-04-01T12:55:28;19.57;;;7.50;;
5965;SDS011;3009;43.224;27.976;2023-04-01T12:58:12;37.97;;;19.87;;
5965;SDS011;3009;43.224;27.976;2023-04-01T13:01:09;16.63;;;7.97;;
5965;SDS011;3009;43.224;27.976;2023-04-01T13:04:04;18.60;;;11.50;;
5965;SDS011;3009;43.224;27.976;2023-04-01T13:07:10;19.50;;;9.00;;
5965;SDS011;3009;43.224;27.976;2023-04-01T13:10:14;16.70;;;9.00;;
5965;SDS011;3009;43.224;27.976;2023-04-01T13:12:59;23.37;;;10.70;;
5965;SDS011;3009;43.224;27.976;2023-04-01T13:15:49;17.87;;;14.57;;
5965;SDS011;3009;43.224;27.976;2023-04-01T13:18:22;21.60;;;11.37;;
5965;SDS011;3009;43.224;27.976;2023-04-01T13:21:04;38.70;;;23.40;;
5965;SDS011;3009;43.224;27.976;2023-04-01T13:23:42;17.27;;;8.27;;
5965;SDS011;3009;43.224;27.976;2023-04-01T13:26:24;18.27;;;9.70;;
5965;SDS011;3009;43.224;27.976;2023-04-01T13:29:03;16.13;;;8.17;;
5965;SDS011;3009;43.224;27.976;2023-04-01T13:31:38;25.37;;;12.20;;
5965;SDS011;3009;43.224;27.976;2023-04-01T13:34:36;21.33;;;9.30;;
5965;SDS011;3009;43.224;27.976;2023-04-01T13:37:24;18.23;;;9.07;;
5965;SDS011;3009;43.224;27.976;2023-04-01T13:40:10;13.73;;;9.30;;
5965;SDS011;3009;43.224;27.976;2023-04-01T13:42:49;13.03;;;8.63;;
5965;SDS011;3009;43.224;27.976;2023-04-01T13:45:26;16.60;;;7.97;;
5965;SDS011;3009;43.224;27.976;2023-04-01T13:54:05;10.00;;;7.10;;
5965;SDS011;3009;43.224;27.976;2023-04-01T13:57:15;13.10;;;6.83;;
5965;SDS011;3009;43.224;27.976;2023-04-01T14:00:10;20.97;;;7.37;;
5965;SDS011;3009;43.224;27.976;2023-04-01T14:06:09;21.07;;;6.20;;
5965;SDS011;3009;43.224;27.976;2023-04-01T14:08:59;11.27;;;6.63;;
5965;SDS011;3009;43.224;27.976;2023-04-01T14:11:45;10.50;;;6.10;;
5965;SDS011;3009;43.224;27.976;2023-04-01T14:14:24;20.10;;;6.80;;
5965;SDS011;3009;43.224;27.976;2023-04-01T14:17:10;8.83;;;5.70;;
5965;SDS011;3009;43.224;27.976;2023-04-01T14:19:49;11.43;;;5.23;;
5965;SDS011;3009;43.224;27.976;2023-04-01T14:22:36;13.90;;;5.60;;
5965;SDS011;3009;43.224;27.976;2023-04-01T14:25:25;13.03;;;5.63;;
5965;SDS011;3009;43.224;27.976;2023-04-01T14:28:09;17.03;;;6.10;;
5965;SDS011;3009;43.224;27.976;2023-04-01T14:30:51;8.90;;;6.03;;
5965;SDS011;3009;43.224;27.976;2023-04-01T14:33:56;6.70;;;5.33;;
5965;SDS011;3009;43.224;27.976;2023-04-01T14:36:38;16.30;;;6.20;;
5965;SDS011;3009;43.224;27.976;2023-04-01T14:42:29;11.33;;;7.27;;
5965;SDS011;3009;43.224;27.976;2023-04-01T14:45:31;15.10;;;6.70;;
5965;SDS011;3009;43.224;27.976;2023-04-01T14:48:23;11.47;;;6.63;;
5965;SDS011;3009;43.224;27.976;2023-04-01T14:50:57;11.10;;;5.30;;
5965;SDS011;3009;43.224;27.976;2023-04-01T14:53:36;16.03;;;7.20;;
5965;SDS011;3009;43.224;27.976;2023-04-01T14:56:11;16.30;;;6.70;;
5965;SDS011;3009;43.224;27.976;2023-04-01T14:58:43;10.40;;;6.13;;
5965;SDS011;3009;43.224;27.976;2023-04-01T15:01:17;15.80;;;6.63;;
5965;SDS011;3009;43.224;27.976;2023-04-01T15:04:00;11.33;;;6.60;;
5965;SDS011;3009;43.224;27.976;2023-04-01T15:06:52;13.63;;;7.47;;
5965;SDS011;3009;43.224;27.976;2023-04-01T15:09:35;15.17;;;7.93;;
5965;SDS011;3009;43.224;27.976;2023-04-01T15:12:12;12.63;;;6.13;;
5965;SDS011;3009;43.224;27.976;2023-04-01T15:15:04;15.03;;;6.37;;
5965;SDS011;3009;43.224;27.976;2023-04-01T15:17:50;15.20;;;6.40;;
5965;SDS011;3009;43.224;27.976;2023-04-01T15:20:33;12.70;;;6.80;;
5965;SDS011;3009;43.224;27.976;2023-04-01T15:29:24;16.37;;;6.20;;
5965;SDS011;3009;43.224;27.976;2023-04-01T15:32:11;13.43;;;6.43;;
5965;SDS011;3009;43.224;27.976;2023-04-01T15:34:45;12.23;;;5.63;;
5965;SDS011;3009;43.224;27.976;2023-04-01T15:37:21;14.57;;;6.93;;
5965;SDS011;3009;43.224;27.976;2023-04-01T15:40:02;15.87;;;6.70;;
5965;SDS011;3009;43.224;27.976;2023-04-01T15:42:53;22.17;;;6.23;;
5965;SDS011;3009;43.224;27.976;2023-04-01T15:45:31;26.90;;;9.30;;
5965;SDS011;3009;43.224;27.976;2023-04-01T15:48:20;15.70;;;6.63;;
5965;SDS011;3009;43.224;27.976;2023-04-01T15:51:09;13.63;;;5.93;;
5965;SDS011;3009;43.224;27.976;2023-04-01T15:53:49;15.33;;;6.00;;
5965;SDS011;3009;43.224;27.976;2023-04-01T15:56:41;11.10;;;6.90;;
5965;SDS011;3009;43.224;27.976;2023-04-01T15:59:24;22.87;;;6.50;;
5965;SDS011;3009;43.224;27.976;2023-04-01T16:02:13;12.20;;;6.70;;
5965;SDS011;3009;43.224;27.976;2023-04-01T16:04:55;10.83;;;7.00;;
5965;SDS011;3009;43.224;27.976;2023-04-01T16:10:30;10.17;;;6.20;;
5965;SDS011;3009;43.224;27.976;2023-04-01T16:13:13;18.73;;;7.83;;
5965;SDS011;3009;43.224;27.976;2023-04-01T16:15:52;13.50;;;6.83;;
5965;SDS011;3009;43.224;27.976;2023-04-01T16:18:33;18.40;;;7.17;;
5965;SDS011;3009;43.224;27.976;2023-04-01T16:21:21;16.17;;;6.60;;
5965;SDS011;3009;43.224;27.976;2023-04-01T16:24:04;11.03;;;6.93;;
5965;SDS011;3009;43.224;27.976;2023-04-01T16:26:44;21.53;;;6.67;;
5965;SDS011;3009;43.224;27.976;2023-04-01T16:29:23;13.30;;;6.30;;
5965;SDS011;3009;43.224;27.976;2023-04-01T16:31:59;12.37;;;8.30;;
5965;SDS011;3009;43.224;27.976;2023-04-01T16:34:43;20.10;;;6.50;;
5965;SDS011;3009;43.224;27.976;2023-04-01T16:37:19;11.43;;;5.87;;
5965;SDS011;3009;43.224;27.976;2023-04-01T16:40:01;16.43;;;6.60;;
5965;SDS011;3009;43.224;27.976;2023-04-01T16:42:40;11.60;;;5.47;;
5965;SDS011;3009;43.224;27.976;2023-04-01T16:45:17;13.10;;;6.97;;
5965;SDS011;3009;43.224;27.976;2023-04-01T16:47:54;10.53;;;5.77;;
5965;SDS011;3009;43.224;27.976;2023-04-01T16:50:26;14.20;;;5.90;;
5965;SDS011;3009;43.224;27.976;2023-04-01T16:53:10;14.37;;;5.63;;
5965;SDS011;3009;43.224;27.976;2023-04-01T16:55:47;28.57;;;6.20;;
5965;SDS011;3009;43.224;27.976;2023-04-01T16:58:21;15.93;;;6.70;;
5965;SDS011;3009;43.224;27.976;2023-04-01T17:00:55;16.90;;;5.53;;
5965;SDS011;3009;43.224;27.976;2023-04-01T17:03:30;13.70;;;7.23;;
5965;SDS011;3009;43.224;27.976;2023-04-01T17:06:05;19.40;;;6.77;;
5965;SDS011;3009;43.224;27.976;2023-04-01T17:08:52;27.37;;;7.10;;
5965;SDS011;3009;43.224;27.976;2023-04-01T17:11:35;16.03;;;6.33;;
5965;SDS011;3009;43.224;27.976;2023-04-01T17:14:13;13.70;;;6.43;;
5965;SDS011;3009;43.224;27.976;2023-04-01T17:16:52;13.13;;;6.47;;
5965;SDS011;3009;43.224;27.976;2023-04-01T17:19:42;16.60;;;6.17;;
5965;SDS011;3009;43.224;27.976;2023-04-01T17:22:22;11.93;;;6.67;;
5965;SDS011;3009;43.224;27.976;2023-04-01T17:25:11;10.67;;;5.83;;
5965;SDS011;3009;43.224;27.976;2023-04-01T17:27:55;14.10;;;6.30;;
5965;SDS011;3009;43.224;27.976;2023-04-01T17:30:28;18.03;;;6.37;;
5965;SDS011;3009;43.224;27.976;2023-04-01T17:36:27;19.53;;;6.53;;
5965;SDS011;3009;43.224;27.976;2023-04-01T17:39:24;17.37;;;7.93;;